createdAt,value
2023-07-24T00:03:35.901Z,18.11
2023-07-24T00:08:41.401Z,18.10
2023-07-24T00:13:47.338Z,18.08
2023-07-24T00:18:52.772Z,18.07
2023-07-24T00:23:58.354Z,18.06
2023-07-24T00:29:04.019Z,18.05
2023-07-24T00:34:09.526Z,18.05
2023-07-24T00:39:14.965Z,18.04
2023-07-24T00:44:21.420Z,18.05
2023-07-24T00:49:27.479Z,18.04
2023-07-24T00:54:33.901Z,18.03
2023-07-24T00:59:39.339Z,18.02
2023-07-24T01:04:44.737Z,18.00
2023-07-24T01:09:52.487Z,17.98
2023-07-24T01:15:01.180Z,17.96
2023-07-24T01:20:07.164Z,17.94
2023-07-24T01:25:23.494Z,17.92
2023-07-24T01:30:29.167Z,17.89
2023-07-24T01:35:34.970Z,17.85
2023-07-24T01:40:41.201Z,17.81
2023-07-24T01:45:46.812Z,17.77
2023-07-24T01:50:52.272Z,17.71
2023-07-24T01:55:57.672Z,17.65
2023-07-24T02:01:03.094Z,17.61
2023-07-24T02:06:08.404Z,17.54
2023-07-24T02:11:13.683Z,17.49
2023-07-24T02:16:19.643Z,17.43
2023-07-24T02:21:25.214Z,17.37
2023-07-24T02:26:33.603Z,17.32
2023-07-24T02:31:41.618Z,17.25
2023-07-24T02:36:47.090Z,17.19
2023-07-24T02:41:52.580Z,17.13
2023-07-24T02:46:58.101Z,17.06
2023-07-24T02:52:03.614Z,16.99
2023-07-24T02:57:09.666Z,16.93
2023-07-24T03:02:16.625Z,16.86
2023-07-24T03:07:22.188Z,16.78
2023-07-24T03:12:27.853Z,16.72
2023-07-24T03:17:33.403Z,16.65
2023-07-24T03:22:38.868Z,16.60
2023-07-24T03:27:46.365Z,16.55
2023-07-24T03:32:52.179Z,16.49
2023-07-24T03:37:57.748Z,16.44
2023-07-24T03:43:05.083Z,16.39
2023-07-24T03:48:10.731Z,16.36
2023-07-24T03:53:16.177Z,16.34
2023-07-24T03:58:21.770Z,16.36
2023-07-24T04:03:27.352Z,16.41
2023-07-24T04:08:32.828Z,16.51
2023-07-24T04:13:38.407Z,16.63
2023-07-24T04:18:43.993Z,16.76
2023-07-24T04:23:49.436Z,16.88
2023-07-24T04:28:54.995Z,17.04
2023-07-24T04:34:00.663Z,17.17
2023-07-24T04:39:06.110Z,17.27
2023-07-24T04:44:11.504Z,17.38
2023-07-24T04:49:17.126Z,17.52
2023-07-24T04:54:22.751Z,17.66
2023-07-24T04:59:28.342Z,17.78
2023-07-24T05:04:33.764Z,17.91
2023-07-24T05:09:39.154Z,18.02
2023-07-24T05:14:44.547Z,18.13
2023-07-24T05:19:50.117Z,18.24
2023-07-24T05:24:55.632Z,18.36
2023-07-24T05:30:01.108Z,18.48
2023-07-24T05:35:07.395Z,18.61
2023-07-24T05:40:13.428Z,18.76
2023-07-24T05:45:19.223Z,18.92
2023-07-24T05:50:25.118Z,19.07
2023-07-24T05:55:30.515Z,19.22
2023-07-24T06:00:37.043Z,19.36
2023-07-24T06:05:42.709Z,19.48
2023-07-24T06:10:48.661Z,19.57
2023-07-24T06:15:55.122Z,19.68
2023-07-24T06:21:00.917Z,19.77
2023-07-24T06:26:06.815Z,19.86
2023-07-24T06:31:12.987Z,19.96
2023-07-24T06:36:19.652Z,20.05
2023-07-24T06:41:25.567Z,20.12
2023-07-24T06:46:36.683Z,20.21
2023-07-24T06:51:42.935Z,20.29
2023-07-24T06:56:49.092Z,20.37
2023-07-24T07:01:54.812Z,20.44
2023-07-24T07:07:01.252Z,20.51
2023-07-24T07:12:08.577Z,20.59
2023-07-24T07:17:14.686Z,20.68
2023-07-24T07:22:20.979Z,20.79
2023-07-24T07:27:26.358Z,20.90
2023-07-24T07:32:31.643Z,20.99
2023-07-24T07:37:38.520Z,21.09
2023-07-24T07:42:45.076Z,21.18
2023-07-24T07:47:51.674Z,21.27
2023-07-24T07:52:58.319Z,21.34
2023-07-24T07:58:04.654Z,21.41
2023-07-24T08:03:10.114Z,21.46
2023-07-24T08:08:16.873Z,21.53
2023-07-24T08:13:23.690Z,21.59
2023-07-24T08:18:30.528Z,21.65
2023-07-24T08:23:36.628Z,21.70
2023-07-24T08:28:44.378Z,21.76
2023-07-24T08:33:51.095Z,21.81
2023-07-24T08:38:57.664Z,21.87
2023-07-24T08:44:04.491Z,21.94
2023-07-24T08:49:14.573Z,22.02
2023-07-24T08:54:22.716Z,22.09
2023-07-24T08:59:29.179Z,22.17
2023-07-24T09:04:34.927Z,22.25
2023-07-24T09:09:42.774Z,22.31
2023-07-24T09:14:49.280Z,22.36
2023-07-24T09:20:00.326Z,22.42
2023-07-24T09:25:07.428Z,22.49
2023-07-24T09:30:17.070Z,22.56
2023-07-24T09:35:27.516Z,22.63
2023-07-24T09:40:40.574Z,22.70
2023-07-24T09:45:46.324Z,22.78
2023-07-24T09:50:56.560Z,22.87
2023-07-24T09:56:05.831Z,22.96
2023-07-24T10:01:11.785Z,23.04
2023-07-24T10:06:17.736Z,23.11
2023-07-24T10:11:23.619Z,23.19
2023-07-24T10:16:29.240Z,23.24
2023-07-24T10:21:34.963Z,23.28
2023-07-24T10:26:40.893Z,23.30
2023-07-24T10:31:55.369Z,23.32
2023-07-24T10:37:06.673Z,23.35
2023-07-24T10:42:13.069Z,23.38
2023-07-24T10:47:18.802Z,23.44
2023-07-24T10:52:32.368Z,23.50
2023-07-24T10:57:37.920Z,23.56
2023-07-24T11:02:43.340Z,23.63
2023-07-24T11:07:48.993Z,23.70
2023-07-24T11:12:55.325Z,23.76
2023-07-24T11:18:00.703Z,23.82
2023-07-24T11:23:06.208Z,23.89
2023-07-24T11:28:12.786Z,23.96
2023-07-24T11:33:19.944Z,24.02
2023-07-24T11:38:25.476Z,24.08
2023-07-24T11:43:31.336Z,24.13
2023-07-24T11:48:44.468Z,24.18
2023-07-24T11:53:50.249Z,24.24
2023-07-24T11:58:55.773Z,24.29
2023-07-24T12:04:01.233Z,24.35
2023-07-24T12:09:08.083Z,24.39
2023-07-24T12:14:13.673Z,24.44
2023-07-24T12:19:19.591Z,24.48
2023-07-24T12:24:25.551Z,24.52
2023-07-24T12:29:31.504Z,24.56
2023-07-24T12:34:36.853Z,24.59
2023-07-24T12:39:42.671Z,24.65
2023-07-24T12:44:48.857Z,24.72
2023-07-24T12:49:57.560Z,24.81
2023-07-24T12:55:03.356Z,24.90
2023-07-24T13:00:11.025Z,24.98
2023-07-24T13:05:17.249Z,25.05
2023-07-24T13:10:23.016Z,25.10
2023-07-24T13:15:28.606Z,25.15
2023-07-24T13:20:34.236Z,25.23
2023-07-24T13:25:39.956Z,25.34
2023-07-24T13:30:46.096Z,25.43
2023-07-24T13:35:51.781Z,25.48
2023-07-24T13:40:57.761Z,25.53
2023-07-24T13:46:04.624Z,25.55
2023-07-24T13:51:10.964Z,25.57
2023-07-24T14:02:35.675Z,25.57
2023-07-24T14:07:41.390Z,25.57
2023-07-24T14:12:46.771Z,25.57
2023-07-24T14:17:52.294Z,25.58
2023-07-24T14:22:57.768Z,25.61
2023-07-24T14:28:03.069Z,25.64
2023-07-24T14:33:12.120Z,25.68
2023-07-24T14:38:17.564Z,25.73
2023-07-24T14:43:22.883Z,25.80
2023-07-24T14:48:28.727Z,25.90
2023-07-24T14:53:34.119Z,25.99
2023-07-24T14:58:39.570Z,26.10
2023-07-24T15:03:45.266Z,26.21
2023-07-24T15:08:54.926Z,26.31
2023-07-24T15:14:00.413Z,26.40
2023-07-24T15:19:05.830Z,26.48
2023-07-24T15:24:11.816Z,26.55
2023-07-24T15:29:19.854Z,26.62
2023-07-24T15:34:26.247Z,26.70
2023-07-24T15:39:31.759Z,26.77
2023-07-24T15:44:37.369Z,26.84
2023-07-24T15:49:42.909Z,26.90
2023-07-24T15:54:48.292Z,26.95
2023-07-24T15:59:53.733Z,27.00
2023-07-24T16:04:59.177Z,27.05
2023-07-24T16:10:04.616Z,27.09
2023-07-24T16:15:11.544Z,27.13
2023-07-24T16:20:17.597Z,27.15
2023-07-24T16:25:22.967Z,27.18
2023-07-24T16:30:28.375Z,27.19
2023-07-24T16:35:33.972Z,27.23
2023-07-24T16:40:39.419Z,27.25
2023-07-24T16:46:04.206Z,27.29
2023-07-24T16:51:10.460Z,27.32
2023-07-24T16:56:15.855Z,27.35
2023-07-24T17:01:21.214Z,27.36
2023-07-24T17:06:26.936Z,27.38
2023-07-24T17:11:32.697Z,27.39
2023-07-24T17:16:38.211Z,27.39
2023-07-24T17:21:44.772Z,27.38
2023-07-24T17:26:49.999Z,27.35
2023-07-24T17:31:55.175Z,27.31
2023-07-24T17:37:00.531Z,27.26
2023-07-24T17:42:06.372Z,27.20
2023-07-24T17:47:11.819Z,27.13
2023-07-24T17:52:17.567Z,27.06
2023-07-24T17:57:22.827Z,26.99
2023-07-24T18:02:28.367Z,26.92
2023-07-24T18:07:35.196Z,26.84
2023-07-24T18:12:40.524Z,26.77
2023-07-24T18:17:47.054Z,26.68
2023-07-24T18:22:52.521Z,26.59
2023-07-24T18:27:58.115Z,26.51
2023-07-24T18:33:03.964Z,26.41
2023-07-24T18:38:11.383Z,26.32
2023-07-24T18:43:16.931Z,26.21
2023-07-24T18:48:22.370Z,26.10
2023-07-24T18:53:28.043Z,25.99
2023-07-24T18:58:33.596Z,25.88
2023-07-24T19:03:39.319Z,25.77
2023-07-24T19:08:44.833Z,25.67
2023-07-24T19:13:50.226Z,25.56
2023-07-24T19:18:55.587Z,25.47
2023-07-24T19:24:00.897Z,25.38
2023-07-24T19:29:06.324Z,25.29
2023-07-24T19:35:01.683Z,25.20
2023-07-24T19:40:08.435Z,25.11
2023-07-24T19:45:13.991Z,25.04
2023-07-24T19:50:19.681Z,24.98
2023-07-24T19:55:25.535Z,24.92
2023-07-24T20:00:33.082Z,24.86
2023-07-24T20:05:38.923Z,24.81
2023-07-24T20:10:47.343Z,24.75
2023-07-24T20:15:53.392Z,24.70
2023-07-24T20:20:59.334Z,24.66
2023-07-24T20:26:06.093Z,24.61
2023-07-24T20:31:12.404Z,24.57
2023-07-24T20:36:18.765Z,24.52
2023-07-24T20:41:24.485Z,24.48
2023-07-24T20:46:31.246Z,24.44
2023-07-24T20:51:37.047Z,24.39
2023-07-24T20:56:43.275Z,24.35
2023-07-24T21:01:48.958Z,24.31
2023-07-24T21:06:55.339Z,24.27
2023-07-24T21:12:01.504Z,24.23
2023-07-24T21:17:07.839Z,24.19
2023-07-24T21:22:14.708Z,24.16
2023-07-24T21:27:20.607Z,24.11
2023-07-24T21:32:26.294Z,24.08
2023-07-24T21:37:32.030Z,24.04
2023-07-24T21:42:37.424Z,23.99
2023-07-24T21:47:43.192Z,23.95
2023-07-24T21:52:48.678Z,23.90
2023-07-24T21:57:56.414Z,23.85
2023-07-24T22:03:02.536Z,23.82
2023-07-24T22:08:08.671Z,23.78
2023-07-24T22:13:14.055Z,23.75
2023-07-24T22:18:19.608Z,23.72
2023-07-24T22:23:26.024Z,23.69
2023-07-24T22:28:31.832Z,23.66
2023-07-24T22:33:38.303Z,23.62
2023-07-24T22:38:43.750Z,23.58
2023-07-24T22:43:49.186Z,23.53
2023-07-24T22:48:54.481Z,23.47
2023-07-24T22:53:59.887Z,23.42
2023-07-24T22:59:25.419Z,23.36
2023-07-24T23:04:31.158Z,23.29
2023-07-24T23:09:36.943Z,23.22
2023-07-24T23:14:42.651Z,23.15
2023-07-24T23:19:48.051Z,23.09
2023-07-24T23:24:53.743Z,23.02
2023-07-24T23:30:02.141Z,22.96
2023-07-24T23:35:08.114Z,22.89
2023-07-24T23:40:14.196Z,22.83
2023-07-24T23:45:19.784Z,22.76
2023-07-24T23:50:25.302Z,22.70
2023-07-24T23:55:32.722Z,22.65
